createdAt,value
2023-03-21T00:00:28.068Z,25.05
2023-03-21T00:02:29.525Z,25.65
2023-03-21T00:04:44.315Z,24.23
2023-03-21T00:06:50.651Z,22.90
2023-03-21T00:08:52.193Z,21.70
2023-03-21T00:11:02.162Z,24.25
2023-03-21T00:13:05.672Z,23.27
2023-03-21T00:15:09.182Z,21.08
2023-03-21T00:17:10.856Z,21.27
2023-03-21T00:19:14.453Z,20.85
2023-03-21T00:23:40.249Z,20.70
2023-03-21T00:25:41.732Z,19.00
2023-03-21T00:28:00.999Z,21.45
2023-03-21T00:30:06.157Z,19.65
2023-03-21T00:32:07.632Z,24.60
2023-03-21T00:34:09.675Z,21.48
2023-03-21T00:36:13.151Z,20.20
2023-03-21T00:38:15.351Z,21.95
2023-03-21T00:40:26.617Z,21.20
2023-03-21T00:42:32.538Z,19.50
2023-03-21T00:44:36.783Z,22.98
2023-03-21T00:47:00.493Z,23.00
2023-03-21T00:49:00.103Z,18.92
2023-03-21T00:51:01.617Z,20.30
2023-03-21T00:53:03.118Z,21.77
2023-03-21T00:55:06.196Z,18.67
2023-03-21T00:57:07.713Z,21.38
2023-03-21T00:59:09.327Z,19.52
2023-03-21T01:01:10.822Z,19.15
2023-03-21T01:03:24.450Z,23.70
2023-03-21T01:05:47.158Z,19.70
2023-03-21T01:07:48.602Z,21.98
2023-03-21T01:09:51.141Z,24.25
2023-03-21T01:11:53.374Z,18.30
2023-03-21T01:14:07.323Z,22.30
2023-03-21T01:16:12.716Z,21.37
2023-03-21T01:18:17.112Z,21.65
2023-03-21T01:20:18.961Z,19.77
2023-03-21T01:22:21.131Z,20.05
2023-03-21T01:24:23.255Z,19.20
2023-03-21T01:26:24.987Z,19.95
2023-03-21T01:28:28.480Z,20.77
2023-03-21T01:30:33.990Z,22.63
2023-03-21T01:32:38.500Z,26.40
2023-03-21T01:34:40.551Z,24.33
2023-03-21T01:36:42.051Z,22.92
2023-03-21T01:38:44.047Z,21.02
2023-03-21T01:40:47.110Z,19.35
2023-03-21T01:42:50.254Z,22.30
2023-03-21T01:44:54.754Z,22.58
2023-03-21T01:47:09.704Z,26.95
2023-03-21T01:49:19.135Z,24.35
2023-03-21T01:51:22.411Z,23.15
2023-03-21T01:53:30.031Z,27.25
2023-03-21T01:55:32.197Z,29.40
2023-03-21T01:57:51.880Z,28.40
2023-03-21T02:00:12.346Z,31.42
2023-03-21T02:02:26.584Z,26.33
2023-03-21T03:28:50.640Z,36.92
2023-03-21T03:31:07.898Z,42.35
2023-03-21T03:33:11.712Z,43.20
2023-03-21T03:35:17.441Z,41.63
2023-03-21T03:37:26.279Z,43.97
2023-03-21T03:42:04.430Z,49.08
2023-03-21T03:44:04.024Z,46.13
2023-03-21T03:46:13.007Z,41.13
2023-03-21T03:48:28.618Z,44.00
2023-03-21T03:50:32.644Z,43.63
2023-03-21T03:52:50.028Z,42.95
2023-03-21T03:54:55.933Z,41.00
2023-03-21T03:56:58.083Z,47.40
2023-03-21T03:59:04.443Z,48.00
2023-03-21T04:01:09.854Z,40.85
2023-03-21T04:03:11.477Z,49.03
2023-03-21T04:05:13.436Z,46.88
2023-03-21T04:07:14.897Z,45.78
2023-03-21T04:09:20.920Z,52.25
2023-03-21T04:11:25.169Z,45.83
2023-03-21T04:13:26.610Z,43.22
2023-03-21T04:15:28.143Z,53.63
2023-03-21T04:17:29.604Z,55.97
2023-03-21T04:19:31.210Z,50.40
2023-03-21T04:21:32.746Z,48.38
2023-03-21T04:23:35.767Z,54.95
2023-03-21T04:25:44.619Z,54.92
2023-03-21T04:27:52.196Z,56.92
2023-03-21T04:29:53.683Z,56.08
2023-03-21T04:31:56.201Z,52.30
2023-03-21T04:33:59.591Z,56.90
2023-03-21T04:36:01.077Z,52.40
2023-03-21T04:38:02.629Z,49.85
2023-03-21T04:40:06.946Z,53.17
2023-03-21T04:42:08.870Z,61.17
2023-03-21T04:44:11.861Z,61.30
2023-03-21T04:46:13.641Z,52.33
2023-03-21T04:48:17.920Z,54.33
2023-03-21T04:50:19.513Z,58.53
2023-03-21T04:52:21.097Z,48.90
2023-03-21T04:54:22.650Z,58.58
2023-03-21T04:56:36.137Z,48.53
2023-03-21T04:58:38.868Z,52.95
2023-03-21T05:00:40.446Z,49.53
2023-03-21T05:02:42.219Z,54.20
2023-03-21T05:04:44.059Z,51.65
2023-03-21T05:06:46.314Z,47.67
2023-03-21T05:08:47.778Z,54.72
2023-03-21T05:10:49.269Z,57.55
2023-03-21T05:12:50.747Z,47.42
2023-03-21T05:14:52.240Z,49.35
2023-03-21T05:16:56.670Z,54.83
2023-03-21T05:19:04.909Z,51.85
2023-03-21T05:21:10.758Z,49.95
2023-03-21T05:23:12.859Z,51.65
2023-03-21T05:25:14.596Z,55.05
2023-03-21T05:27:34.112Z,61.40
2023-03-21T05:29:35.575Z,47.45
2023-03-21T05:31:37.046Z,52.33
2023-03-21T05:33:38.552Z,59.80
2023-03-21T05:35:40.557Z,48.13
2023-03-21T05:37:42.145Z,47.60
2023-03-21T05:39:43.663Z,50.30
2023-03-21T05:41:45.497Z,50.92
2023-03-21T05:43:47.432Z,51.90
2023-03-21T05:45:48.995Z,50.42
2023-03-21T05:47:50.528Z,48.17
2023-03-21T05:49:52.371Z,53.00
2023-03-21T05:51:53.869Z,51.33
2023-03-21T05:53:55.355Z,53.15
2023-03-21T05:55:57.024Z,45.50
2023-03-21T05:57:58.492Z,51.63
2023-03-21T05:59:59.975Z,52.17
2023-03-21T06:02:01.666Z,52.72
2023-03-21T06:04:03.179Z,48.80
2023-03-21T06:06:05.076Z,54.67
2023-03-21T06:08:06.627Z,46.13
2023-03-21T06:10:08.834Z,41.85
2023-03-21T06:12:12.200Z,44.20
2023-03-21T06:14:13.895Z,39.95
2023-03-21T06:16:15.701Z,44.38
2023-03-21T06:18:17.320Z,45.42
2023-03-21T06:20:18.922Z,48.83
2023-03-21T06:22:21.006Z,51.67
2023-03-21T06:24:22.488Z,43.20
2023-03-21T06:26:23.980Z,45.63
2023-03-21T06:28:25.749Z,44.28
2023-03-21T06:30:27.247Z,46.38
2023-03-21T06:32:28.769Z,44.72
2023-03-21T06:34:30.959Z,43.70
2023-03-21T06:36:32.513Z,42.58
2023-03-21T06:38:37.889Z,39.67
2023-03-21T06:40:40.387Z,34.33
2023-03-21T06:42:41.957Z,42.38
2023-03-21T06:44:43.676Z,40.15
2023-03-21T06:46:45.687Z,43.90
2023-03-21T06:48:47.480Z,39.58
2023-03-21T06:50:50.347Z,42.70
2023-03-21T06:52:53.014Z,41.55
2023-03-21T06:54:54.491Z,42.35
2023-03-21T06:56:56.674Z,52.35
2023-03-21T06:58:58.305Z,32.03
2023-03-21T07:01:01.673Z,37.35
2023-03-21T07:03:03.267Z,39.72
2023-03-21T07:05:05.275Z,39.90
2023-03-21T07:07:06.779Z,38.28
2023-03-21T07:09:08.378Z,40.60
2023-03-21T07:11:10.646Z,40.25
2023-03-21T07:13:12.228Z,40.70
2023-03-21T07:15:14.056Z,29.23
2023-03-21T07:17:15.579Z,34.58
2023-03-21T07:19:17.181Z,38.25
2023-03-21T07:21:18.710Z,35.78
2023-03-21T07:23:23.097Z,29.42
2023-03-21T07:25:24.941Z,32.72
2023-03-21T07:27:26.460Z,34.17
2023-03-21T07:29:28.122Z,34.25
2023-03-21T07:31:29.736Z,35.75
2023-03-21T07:33:32.997Z,30.70
2023-03-21T07:35:37.277Z,31.65
2023-03-21T07:37:40.504Z,31.90
2023-03-21T07:39:43.190Z,30.02
2023-03-21T07:41:44.720Z,33.20
2023-03-21T07:43:46.228Z,28.17
2023-03-21T07:45:47.718Z,30.27
2023-03-21T07:47:49.758Z,30.80
2023-03-21T07:49:51.247Z,30.58
2023-03-21T07:51:52.733Z,32.80
2023-03-21T07:53:54.216Z,29.50
2023-03-21T07:55:56.638Z,25.52
2023-03-21T07:57:58.182Z,25.42
2023-03-21T07:59:59.723Z,31.38
2023-03-21T08:02:01.220Z,26.10
2023-03-21T08:04:02.715Z,33.08
2023-03-21T08:06:04.519Z,28.05
2023-03-21T08:08:06.376Z,24.88
2023-03-21T08:10:08.730Z,26.48
2023-03-21T08:12:11.214Z,29.13
2023-03-21T08:14:12.803Z,22.67
2023-03-21T08:16:14.337Z,27.75
2023-03-21T08:18:15.920Z,26.10
2023-03-21T08:20:21.373Z,23.30
2023-03-21T08:22:22.894Z,22.38
2023-03-21T08:24:24.957Z,26.48
2023-03-21T08:26:26.571Z,23.83
2023-03-21T08:28:28.330Z,22.70
2023-03-21T08:30:29.938Z,30.90
2023-03-21T08:32:31.477Z,25.00
2023-03-21T08:34:32.952Z,25.65
2023-03-21T08:36:37.094Z,21.67
2023-03-21T08:38:38.562Z,26.52
2023-03-21T08:40:40.330Z,26.55
2023-03-21T08:42:42.473Z,20.10
2023-03-21T08:44:43.931Z,21.10
2023-03-21T08:46:45.460Z,21.40
2023-03-21T08:48:46.980Z,24.73
2023-03-21T08:50:48.585Z,23.27
2023-03-21T08:52:50.476Z,24.90
2023-03-21T08:54:51.936Z,20.80
2023-03-21T08:56:53.531Z,20.55
2023-03-21T08:58:55.106Z,17.98
2023-03-21T09:00:56.808Z,17.60
2023-03-21T09:02:58.909Z,21.85
2023-03-21T09:05:00.446Z,19.77
2023-03-21T09:07:04.798Z,22.08
2023-03-21T09:09:08.606Z,22.98
2023-03-21T09:11:10.744Z,17.50
2023-03-21T09:13:12.309Z,22.20
2023-03-21T09:15:14.634Z,21.75
2023-03-21T09:17:16.125Z,21.90
2023-03-21T09:19:17.987Z,18.30
2023-03-21T09:21:21.234Z,24.05
2023-03-21T09:23:22.881Z,20.05
2023-03-21T09:25:24.578Z,15.48
2023-03-21T09:27:28.649Z,16.23
2023-03-21T09:29:32.409Z,16.90
2023-03-21T09:31:34.184Z,16.70
2023-03-21T09:33:36.099Z,20.65
2023-03-21T09:35:37.907Z,15.35
2023-03-21T09:37:42.359Z,16.50
2023-03-21T09:39:44.821Z,17.90
2023-03-21T09:41:52.774Z,17.38
2023-03-21T09:44:19.090Z,15.50
2023-03-21T09:46:42.805Z,15.05
2023-03-21T09:49:09.940Z,18.05
2023-03-21T09:51:18.998Z,14.15
2023-03-21T09:53:33.745Z,17.00
2023-03-21T09:55:37.681Z,16.27
2023-03-21T09:57:44.656Z,17.50
2023-03-21T09:59:48.408Z,17.40
2023-03-21T10:01:50.352Z,14.13
2023-03-21T10:03:53.519Z,15.70
2023-03-21T10:05:58.687Z,14.15
2023-03-21T10:08:08.966Z,19.63
2023-03-21T10:10:17.559Z,14.88
2023-03-21T10:12:23.193Z,17.95
2023-03-21T10:14:39.009Z,16.92
2023-03-21T10:16:44.605Z,17.35
2023-03-21T10:18:46.840Z,14.18
2023-03-21T10:20:50.608Z,15.57
2023-03-21T10:22:55.116Z,14.05
2023-03-21T10:24:56.626Z,15.68
2023-03-21T10:26:58.698Z,16.80
2023-03-21T10:29:02.503Z,10.27
2023-03-21T10:31:19.032Z,15.27
2023-03-21T10:33:26.382Z,12.40
2023-03-21T10:35:28.003Z,14.35
2023-03-21T10:37:29.747Z,12.95
2023-03-21T10:39:40.055Z,13.60
2023-03-21T10:41:41.642Z,10.70
2023-03-21T10:43:45.368Z,14.13
2023-03-21T10:45:48.673Z,12.30
2023-03-21T10:47:51.818Z,13.40
2023-03-21T10:50:07.284Z,11.90
2023-03-21T10:52:11.684Z,10.50
2023-03-21T10:54:16.417Z,13.20
2023-03-21T10:56:18.761Z,10.30
2023-03-21T10:58:27.293Z,13.73
2023-03-21T11:00:35.462Z,10.18
2023-03-21T11:02:38.072Z,13.63
2023-03-21T11:04:39.660Z,10.68
2023-03-21T11:06:44.627Z,9.80
2023-03-21T11:08:49.686Z,10.60
2023-03-21T11:11:00.936Z,11.48
2023-03-21T11:13:07.680Z,12.48
2023-03-21T11:15:32.286Z,9.68
2023-03-21T11:17:35.759Z,12.55
2023-03-21T11:19:37.221Z,9.20
2023-03-21T11:21:39.281Z,12.70
2023-03-21T11:23:52.053Z,12.73
2023-03-21T11:25:53.734Z,10.65
2023-03-21T11:27:56.209Z,9.73
2023-03-21T11:30:01.647Z,10.43
2023-03-21T11:32:12.764Z,11.75
2023-03-21T11:34:28.001Z,16.80
2023-03-21T11:36:38.938Z,14.13
2023-03-21T11:38:40.469Z,15.27
2023-03-21T11:40:54.659Z,11.15
2023-03-21T11:43:14.506Z,14.98
2023-03-21T11:45:22.542Z,10.35
2023-03-21T11:47:24.070Z,17.10
2023-03-21T11:49:26.638Z,12.30
2023-03-21T11:51:48.940Z,13.43
2023-03-21T11:54:08.834Z,12.93
2023-03-21T11:56:17.334Z,10.10
2023-03-21T11:58:21.794Z,13.77
2023-03-21T12:00:29.646Z,12.63
2023-03-21T12:02:51.548Z,15.47
2023-03-21T12:05:02.029Z,13.88
2023-03-21T12:07:21.793Z,17.58
2023-03-21T12:09:35.971Z,15.20
2023-03-21T12:11:49.684Z,19.70
2023-03-21T12:14:19.031Z,16.35
2023-03-21T12:17:02.809Z,17.23
2023-03-21T12:19:20.750Z,15.55
2023-03-21T12:21:38.367Z,14.57
2023-03-21T12:23:39.838Z,17.37
2023-03-21T12:26:03.290Z,15.65
2023-03-21T12:28:37.662Z,17.73
2023-03-21T12:30:55.377Z,18.02
2023-03-21T12:33:25.438Z,17.90
2023-03-21T12:35:49.346Z,18.42
2023-03-21T12:38:16.143Z,17.67
2023-03-21T12:40:36.106Z,18.77
2023-03-21T12:43:12.748Z,17.52
2023-03-21T12:45:24.638Z,22.20
2023-03-21T12:47:30.436Z,18.30
2023-03-21T12:49:44.001Z,20.95
2023-03-21T12:51:54.535Z,16.38
2023-03-21T12:54:15.081Z,16.42
2023-03-21T12:56:34.950Z,16.60
2023-03-21T12:58:45.890Z,17.33
2023-03-21T13:00:51.495Z,18.05
2023-03-21T13:03:03.708Z,15.57
2023-03-21T13:05:28.061Z,16.00
2023-03-21T13:07:34.226Z,15.13
2023-03-21T13:09:38.597Z,17.38
2023-03-21T13:11:40.511Z,17.98
2023-03-21T13:14:13.679Z,19.98
2023-03-21T13:16:22.770Z,17.95
2023-03-21T13:18:53.471Z,14.63
2023-03-21T13:20:58.133Z,15.63
2023-03-21T13:23:00.505Z,14.80
2023-03-21T13:25:21.724Z,16.00
2023-03-21T13:27:33.853Z,14.18
2023-03-21T13:29:42.616Z,14.80
2023-03-21T13:31:51.997Z,14.55
2023-03-21T13:33:58.634Z,15.55
2023-03-21T13:36:07.277Z,14.13
2023-03-21T13:40:24.298Z,12.60
2023-03-21T13:42:33.513Z,13.55
2023-03-21T13:44:50.475Z,12.00
2023-03-21T13:47:00.699Z,14.65
2023-03-21T13:49:14.853Z,11.73
2023-03-21T13:51:37.680Z,11.43
2023-03-21T13:53:43.705Z,17.45
2023-03-21T13:55:49.239Z,11.13
2023-03-21T13:57:50.782Z,12.65
2023-03-21T14:00:15.968Z,15.15
2023-03-21T14:02:52.841Z,14.13
2023-03-21T14:05:06.688Z,12.63
2023-03-21T14:07:12.712Z,13.73
2023-03-21T14:09:25.474Z,13.43
2023-03-21T14:11:28.853Z,13.82
2023-03-21T14:13:33.093Z,13.40
2023-03-21T14:15:56.454Z,13.27
2023-03-21T14:18:15.898Z,13.90
2023-03-21T14:20:33.505Z,17.50
2023-03-21T14:22:34.961Z,15.77
2023-03-21T14:24:36.467Z,13.10
2023-03-21T14:26:43.266Z,16.30
2023-03-21T14:28:49.641Z,13.98
2023-03-21T14:30:54.808Z,16.08
2023-03-21T14:32:59.296Z,16.88
2023-03-21T14:35:01.637Z,17.90
2023-03-21T14:37:07.616Z,17.23
2023-03-21T14:39:27.630Z,15.32
2023-03-21T14:41:31.451Z,14.55
2023-03-21T14:43:36.125Z,19.58
2023-03-21T14:45:39.813Z,15.70
2023-03-21T14:47:41.737Z,14.85
2023-03-21T14:49:43.516Z,14.95
2023-03-21T14:51:46.894Z,18.55
2023-03-21T14:53:48.480Z,15.95
2023-03-21T14:56:00.656Z,15.38
2023-03-21T14:58:02.172Z,15.25
2023-03-21T15:00:12.865Z,16.77
2023-03-21T15:02:19.325Z,14.70
2023-03-21T15:04:21.760Z,15.32
2023-03-21T15:06:23.265Z,15.63
2023-03-21T15:08:27.577Z,15.80
2023-03-21T15:10:31.770Z,17.17
2023-03-21T15:12:33.723Z,15.88
2023-03-21T15:14:36.718Z,12.95
2023-03-21T15:16:39.575Z,19.60
2023-03-21T15:18:41.849Z,15.98
2023-03-21T15:20:46.393Z,12.80
2023-03-21T15:22:53.985Z,16.67
2023-03-21T15:25:02.081Z,15.27
2023-03-21T15:27:13.650Z,16.63
2023-03-21T15:29:16.849Z,13.70
2023-03-21T15:31:24.186Z,12.55
2023-03-21T15:33:26.430Z,14.23
2023-03-21T15:35:39.973Z,12.15
2023-03-21T15:37:41.842Z,12.82
2023-03-21T15:39:43.629Z,12.52
2023-03-21T15:42:17.914Z,14.52
2023-03-21T15:44:22.193Z,13.52
2023-03-21T15:46:43.038Z,13.43
2023-03-21T15:48:45.382Z,13.30
2023-03-21T15:50:56.204Z,13.13
2023-03-21T15:53:01.233Z,15.00
2023-03-21T15:55:02.998Z,12.43
2023-03-21T15:57:19.898Z,10.60
2023-03-21T15:59:25.355Z,14.45
2023-03-21T16:01:29.921Z,11.13
2023-03-21T16:03:36.131Z,12.55
2023-03-21T16:05:37.672Z,9.50
2023-03-21T16:07:45.911Z,11.68
2023-03-21T16:09:47.389Z,11.30
2023-03-21T16:11:51.207Z,12.02
2023-03-21T16:13:53.767Z,10.93
2023-03-21T16:15:55.262Z,13.73
2023-03-21T16:17:59.725Z,10.27
2023-03-21T16:20:01.267Z,11.70
2023-03-21T16:22:02.728Z,13.88
2023-03-21T16:24:06.234Z,14.02
2023-03-21T16:26:12.095Z,12.10
2023-03-21T16:28:16.746Z,9.57
2023-03-21T16:30:21.816Z,12.95
2023-03-21T16:32:23.919Z,12.23
2023-03-21T16:34:27.078Z,14.57
2023-03-21T16:36:34.153Z,9.65
2023-03-21T16:38:35.748Z,10.20
2023-03-21T16:40:39.536Z,10.35
2023-03-21T16:42:41.245Z,15.23
2023-03-21T16:44:42.720Z,10.57
2023-03-21T16:46:44.920Z,11.95
2023-03-21T16:48:49.530Z,12.18
2023-03-21T16:50:51.237Z,12.38
2023-03-21T16:52:56.817Z,11.18
2023-03-21T16:54:58.295Z,11.75
2023-03-21T16:56:59.840Z,11.07
2023-03-21T16:59:01.390Z,13.20
2023-03-21T17:01:02.934Z,12.95
2023-03-21T17:03:13.811Z,13.68
2023-03-21T17:05:15.715Z,12.43
2023-03-21T17:07:18.296Z,10.13
2023-03-21T17:09:22.699Z,11.80
2023-03-21T17:11:26.943Z,12.93
2023-03-21T17:13:28.402Z,14.77
2023-03-21T17:15:29.958Z,12.25
2023-03-21T17:17:31.457Z,9.55
2023-03-21T17:19:32.954Z,11.57
2023-03-21T17:21:34.515Z,10.07
2023-03-21T17:23:36.101Z,17.10
2023-03-21T17:25:37.776Z,12.68
2023-03-21T17:27:39.570Z,13.63
2023-03-21T17:29:41.151Z,15.35
2023-03-21T17:31:43.931Z,10.90
2023-03-21T17:33:45.882Z,14.52
2023-03-21T17:35:47.494Z,9.38
2023-03-21T17:37:52.342Z,15.32
2023-03-21T17:39:53.819Z,15.95
2023-03-21T17:41:56.897Z,12.23
2023-03-21T17:43:58.428Z,16.10
2023-03-21T17:45:59.990Z,8.95
2023-03-21T17:48:01.611Z,12.82
2023-03-21T17:50:03.614Z,12.80
2023-03-21T17:52:05.240Z,10.82
2023-03-21T17:54:06.732Z,12.20
2023-03-21T17:56:14.855Z,9.65
2023-03-21T17:58:17.792Z,8.35
2023-03-21T18:00:25.089Z,11.30
2023-03-21T18:02:26.740Z,10.38
2023-03-21T18:04:28.248Z,12.57
2023-03-21T18:06:29.808Z,11.63
2023-03-21T18:08:31.665Z,10.25
2023-03-21T18:10:33.590Z,13.02
2023-03-21T18:12:35.099Z,10.63
2023-03-21T18:14:40.514Z,12.85
2023-03-21T18:16:42.480Z,10.68
2023-03-21T18:18:46.433Z,10.32
2023-03-21T18:20:53.799Z,10.25
2023-03-21T18:22:55.764Z,12.25
2023-03-21T18:24:57.698Z,17.08
2023-03-21T18:26:59.182Z,12.15
2023-03-21T18:30:03.866Z,9.10
2023-03-21T18:31:22.892Z,11.20
2023-03-21T18:33:24.758Z,9.40
2023-03-21T18:35:26.570Z,10.88
2023-03-21T18:37:31.964Z,8.82
2023-03-21T18:39:33.719Z,8.75
2023-03-21T18:41:35.254Z,8.18
2023-03-21T18:45:59.769Z,10.43
2023-03-21T18:48:01.632Z,11.18
2023-03-21T18:50:14.231Z,6.82
2023-03-21T18:52:16.932Z,10.25
2023-03-21T18:54:18.636Z,10.10
2023-03-21T18:57:13.048Z,7.28
2023-03-21T18:58:41.755Z,7.10
2023-03-21T19:00:43.782Z,10.25
2023-03-21T19:02:48.346Z,6.85
2023-03-21T19:04:50.050Z,11.48
2023-03-21T19:06:51.543Z,8.65
2023-03-21T19:08:53.621Z,13.90
2023-03-21T19:10:59.621Z,11.43
2023-03-21T19:13:02.933Z,7.63
2023-03-21T19:15:06.000Z,9.83
2023-03-21T19:18:03.043Z,10.70
2023-03-21T19:19:29.761Z,8.93
2023-03-21T19:21:31.588Z,8.75
2023-03-21T19:23:56.363Z,6.60
2023-03-21T19:25:54.748Z,7.05
2023-03-21T19:27:56.375Z,5.75
2023-03-21T19:30:13.422Z,6.90
2023-03-21T19:32:16.197Z,8.23
2023-03-21T19:34:18.685Z,13.27
2023-03-21T19:36:22.948Z,10.77
2023-03-21T19:38:25.115Z,8.05
2023-03-21T19:40:26.642Z,7.05
2023-03-21T19:42:30.664Z,8.63
2023-03-21T19:44:33.354Z,7.63
2023-03-21T19:46:35.016Z,5.65
2023-03-21T19:48:38.569Z,6.15
2023-03-21T19:51:03.484Z,7.68
2023-03-21T19:53:02.313Z,9.95
2023-03-21T19:55:04.937Z,7.93
2023-03-21T19:57:07.330Z,8.00
2023-03-21T19:59:08.981Z,11.07
2023-03-21T20:01:11.879Z,6.60
2023-03-21T20:03:13.794Z,6.70
2023-03-21T20:05:16.901Z,10.30
2023-03-21T20:07:18.384Z,8.25
2023-03-21T20:09:50.430Z,10.40
2023-03-21T20:11:43.516Z,6.68
2023-03-21T20:13:46.574Z,9.15
2023-03-21T20:15:48.336Z,8.75
2023-03-21T20:17:50.783Z,10.73
2023-03-21T20:19:53.409Z,9.57
2023-03-21T20:21:59.784Z,9.15
2023-03-21T20:26:13.931Z,13.48
2023-03-21T20:30:27.308Z,11.63
2023-03-21T20:32:28.812Z,8.30
2023-03-21T20:34:30.774Z,7.38
2023-03-21T20:36:40.144Z,9.63
2023-03-21T20:38:42.101Z,9.10
2023-03-21T20:40:45.512Z,8.82
2023-03-21T20:42:48.651Z,9.88
2023-03-21T20:44:58.659Z,8.18
2023-03-21T20:47:00.621Z,8.75
2023-03-21T20:49:02.125Z,9.95
2023-03-21T20:53:35.110Z,10.63
2023-03-21T20:55:37.301Z,11.55
2023-03-21T20:57:40.777Z,7.53
2023-03-21T20:59:43.801Z,8.30
2023-03-21T21:01:45.547Z,13.38
2023-03-21T21:03:50.240Z,8.50
2023-03-21T21:05:51.972Z,9.40
2023-03-21T21:07:53.448Z,13.18
2023-03-21T21:09:55.035Z,9.93
2023-03-21T21:12:12.421Z,16.60
2023-03-21T21:14:17.735Z,9.32
2023-03-21T21:16:19.240Z,8.98
2023-03-21T21:18:21.740Z,9.55
2023-03-21T21:20:23.234Z,9.38
2023-03-21T21:22:24.774Z,8.80
2023-03-21T21:24:26.249Z,7.45
2023-03-21T21:26:27.798Z,7.68
2023-03-21T21:28:31.566Z,10.55
2023-03-21T21:30:34.024Z,7.38
2023-03-21T21:32:38.048Z,10.30
2023-03-21T21:34:39.499Z,9.68
2023-03-21T21:36:41.089Z,13.57
2023-03-21T21:38:42.682Z,8.93
2023-03-21T21:40:46.011Z,10.85
2023-03-21T21:42:47.598Z,8.73
2023-03-21T21:44:49.167Z,7.97
2023-03-21T21:46:51.336Z,7.68
2023-03-21T21:48:53.182Z,10.00
2023-03-21T21:50:54.640Z,7.63
2023-03-21T21:52:56.143Z,10.20
2023-03-21T21:54:57.689Z,10.65
2023-03-21T21:56:59.474Z,13.15
2023-03-21T21:59:03.898Z,10.15
2023-03-21T22:01:06.316Z,7.45
2023-03-21T22:03:09.192Z,9.02
2023-03-21T22:05:10.765Z,8.85
2023-03-21T22:07:14.716Z,15.10
2023-03-21T22:09:16.300Z,10.20
2023-03-21T22:11:18.714Z,9.60
2023-03-21T22:13:20.394Z,12.27
2023-03-21T22:15:23.820Z,12.02
2023-03-21T22:17:25.344Z,8.77
2023-03-21T22:19:27.697Z,11.20
2023-03-21T22:21:29.184Z,11.05
2023-03-21T22:23:30.740Z,12.27
2023-03-21T22:25:35.056Z,11.35
2023-03-21T22:27:37.132Z,10.23
2023-03-21T22:29:38.767Z,12.45
2023-03-21T22:31:41.822Z,13.98
2023-03-21T22:33:44.405Z,11.65
2023-03-21T22:35:46.075Z,16.13
2023-03-21T22:37:47.952Z,14.32
2023-03-21T22:39:49.496Z,15.13
2023-03-21T22:41:50.985Z,12.45
2023-03-21T22:43:52.499Z,11.07
2023-03-21T22:45:54.758Z,10.45
2023-03-21T22:47:56.394Z,8.85
2023-03-21T22:49:57.924Z,9.50
2023-03-21T22:52:00.680Z,16.30
2023-03-21T22:54:02.268Z,11.05
2023-03-21T22:56:03.900Z,12.10
2023-03-21T22:58:05.848Z,9.90
2023-03-21T23:00:14.448Z,9.65
2023-03-21T23:02:16.471Z,13.85
2023-03-21T23:04:18.568Z,12.23
2023-03-21T23:06:20.086Z,11.25
2023-03-21T23:08:21.692Z,13.93
2023-03-21T23:10:23.177Z,14.73
2023-03-21T23:12:24.635Z,11.98
2023-03-21T23:14:26.320Z,12.23
2023-03-21T23:16:28.949Z,13.23
2023-03-21T23:18:30.527Z,12.35
2023-03-21T23:20:32.006Z,12.35
2023-03-21T23:22:34.841Z,11.90
2023-03-21T23:24:36.298Z,11.88
2023-03-21T23:26:38.239Z,15.43
2023-03-21T23:28:39.692Z,17.95
2023-03-21T23:30:41.533Z,13.48
2023-03-21T23:32:43.243Z,15.27
2023-03-21T23:34:44.814Z,15.40
2023-03-21T23:36:46.405Z,16.77
2023-03-21T23:38:48.183Z,17.42
2023-03-21T23:40:49.615Z,19.23
2023-03-21T23:42:51.589Z,14.20
2023-03-21T23:44:53.046Z,12.35
2023-03-21T23:46:54.833Z,13.60
2023-03-21T23:48:56.367Z,12.13
2023-03-21T23:50:58.591Z,11.82
2023-03-21T23:53:00.156Z,13.30
2023-03-21T23:55:01.723Z,15.00
2023-03-21T23:57:03.917Z,16.15
2023-03-21T23:59:06.218Z,15.85
